createdAt,value
2022-10-26T00:01:25.091Z,10.60
2022-10-26T00:06:25.107Z,10.80
2022-10-26T00:11:23.184Z,10.80
2022-10-26T00:16:23.969Z,10.80
2022-10-26T00:21:21.268Z,10.90
2022-10-26T00:26:18.548Z,10.90
2022-10-26T00:31:16.922Z,10.90
2022-10-26T00:36:16.940Z,10.90
2022-10-26T00:41:16.528Z,10.80
2022-10-26T00:46:36.086Z,10.80
2022-10-26T00:51:40.617Z,10.80
2022-10-26T00:56:38.223Z,10.80
2022-10-26T01:01:38.244Z,10.70
2022-10-26T01:06:38.232Z,10.80
2022-10-26T01:11:35.583Z,10.80
2022-10-26T01:16:32.733Z,10.80
2022-10-26T01:21:48.816Z,10.90
2022-10-26T01:27:01.729Z,10.90
2022-10-26T01:32:27.251Z,10.80
2022-10-26T01:37:31.106Z,10.80
2022-10-26T01:42:31.080Z,10.80
2022-10-26T01:47:30.717Z,10.80
2022-10-26T01:52:28.740Z,10.70
2022-10-26T01:57:25.941Z,10.60
2022-10-26T02:02:39.362Z,10.50
2022-10-26T02:08:14.938Z,10.50
2022-10-26T02:13:39.876Z,10.30
2022-10-26T02:18:59.313Z,10.30
2022-10-26T02:24:10.690Z,10.40
2022-10-26T02:29:12.097Z,10.50
2022-10-26T02:34:13.272Z,10.60
2022-10-26T02:39:13.000Z,10.70
2022-10-26T02:44:30.994Z,10.80
2022-10-26T02:49:30.704Z,10.80
2022-10-26T02:54:37.321Z,10.80
2022-10-26T02:59:47.874Z,10.80
2022-10-26T03:04:45.239Z,10.80
2022-10-26T03:09:42.476Z,10.80
2022-10-26T03:14:41.507Z,10.80
2022-10-26T03:19:38.709Z,10.80
2022-10-26T03:24:35.847Z,10.70
2022-10-26T03:29:33.362Z,10.70
2022-10-26T03:34:30.683Z,10.70
2022-10-26T03:39:37.733Z,10.70
2022-10-26T03:44:35.229Z,10.90
2022-10-26T03:49:32.710Z,10.90
2022-10-26T03:54:30.976Z,10.90
2022-10-26T03:59:28.611Z,10.80
2022-10-26T04:04:28.807Z,10.80
2022-10-26T04:09:31.341Z,10.60
2022-10-26T04:14:28.666Z,10.50
2022-10-26T04:19:27.246Z,10.40
2022-10-26T04:24:25.946Z,10.30
2022-10-26T04:29:23.636Z,10.40
2022-10-26T04:34:22.332Z,10.40
2022-10-26T04:39:19.511Z,10.50
2022-10-26T04:44:16.674Z,10.50
2022-10-26T04:49:13.962Z,10.30
2022-10-26T04:54:11.276Z,10.20
2022-10-26T04:59:08.437Z,10.10
2022-10-26T05:04:05.842Z,10.10
2022-10-26T05:09:03.232Z,10.20
2022-10-26T05:14:00.423Z,10.20
2022-10-26T05:18:57.656Z,10.30
2022-10-26T05:23:55.746Z,10.40
2022-10-26T05:28:53.461Z,10.40
2022-10-26T05:33:51.771Z,10.40
2022-10-26T05:38:49.001Z,10.30
2022-10-26T05:43:48.520Z,10.30
2022-10-26T05:48:45.681Z,10.30
2022-10-26T05:53:42.872Z,10.40
2022-10-26T05:58:40.391Z,10.40
2022-10-26T06:04:25.527Z,10.40
2022-10-26T06:09:23.531Z,10.50
2022-10-26T06:14:20.973Z,10.50
2022-10-26T06:19:24.211Z,10.50
2022-10-26T06:24:36.852Z,10.60
2022-10-26T06:29:44.096Z,10.70
2022-10-26T06:34:46.781Z,10.60
2022-10-26T06:39:50.172Z,10.50
2022-10-26T06:44:50.678Z,10.80
2022-10-26T06:50:11.892Z,11.00
2022-10-26T06:55:15.552Z,11.10
2022-10-26T07:00:22.249Z,11.10
2022-10-26T07:05:19.594Z,11.20
2022-10-26T07:10:17.058Z,11.00
2022-10-26T07:15:14.380Z,11.00
2022-10-26T07:20:12.771Z,10.90
2022-10-26T07:25:11.696Z,10.90
2022-10-26T07:30:09.724Z,12.70
2022-10-26T07:35:07.239Z,14.90
2022-10-26T07:40:06.826Z,14.90
2022-10-26T07:45:04.780Z,15.20
2022-10-26T07:50:01.994Z,14.20
2022-10-26T07:54:59.296Z,13.90
2022-10-26T07:59:56.500Z,14.40
2022-10-26T08:04:53.878Z,15.10
2022-10-26T08:09:51.319Z,16.30
2022-10-26T08:14:48.625Z,15.90
2022-10-26T08:19:48.629Z,15.70
2022-10-26T08:24:47.027Z,17.30
2022-10-26T08:29:44.355Z,18.20
2022-10-26T08:34:41.680Z,18.90
2022-10-26T08:39:38.926Z,19.40
2022-10-26T08:44:46.166Z,19.20
2022-10-26T08:50:19.510Z,18.20
2022-10-26T08:55:25.678Z,18.60
2022-10-26T09:00:25.206Z,20.10
2022-10-26T09:06:00.628Z,20.80
2022-10-26T09:11:12.551Z,20.10
2022-10-26T09:16:36.275Z,20.20
2022-10-26T09:21:59.211Z,22.00
2022-10-26T09:27:01.800Z,22.30
2022-10-26T09:32:01.597Z,22.50
2022-10-26T09:36:59.225Z,22.50
2022-10-26T09:42:14.950Z,22.50
2022-10-26T09:47:29.292Z,22.80
2022-10-26T09:52:26.462Z,22.40
2022-10-26T09:57:24.881Z,22.30
2022-10-26T10:02:38.878Z,21.50
2022-10-26T10:07:39.950Z,21.00
2022-10-26T10:12:37.431Z,19.90
2022-10-26T10:17:34.700Z,20.50
2022-10-26T10:22:31.922Z,20.50
2022-10-26T10:27:30.896Z,19.20
2022-10-26T10:32:35.887Z,18.70
2022-10-26T10:37:44.488Z,18.60
2022-10-26T10:42:43.949Z,18.50
2022-10-26T10:52:44.030Z,17.70
2022-10-26T10:58:18.249Z,17.40
2022-10-26T11:03:57.404Z,17.30
2022-10-26T11:09:13.970Z,17.40
2022-10-26T11:14:11.191Z,17.30
2022-10-26T11:19:23.815Z,17.50
2022-10-26T11:24:42.314Z,17.50
2022-10-26T11:29:48.780Z,17.70
2022-10-26T11:35:06.395Z,18.00
2022-10-26T11:40:09.714Z,18.00
2022-10-26T11:45:39.174Z,17.90
2022-10-26T11:50:41.965Z,17.90
2022-10-26T11:55:41.165Z,18.10
2022-10-26T12:00:53.380Z,18.10
2022-10-26T12:05:52.287Z,17.90
2022-10-26T12:11:18.674Z,18.00
2022-10-26T12:16:34.880Z,18.00
2022-10-26T12:21:33.513Z,18.00
2022-10-26T12:26:33.664Z,18.10
2022-10-26T12:31:37.404Z,18.10
2022-10-26T12:36:55.684Z,18.20
2022-10-26T12:41:58.512Z,18.20
2022-10-26T12:46:55.710Z,18.20
2022-10-26T12:51:53.099Z,18.10
2022-10-26T12:57:10.876Z,18.00
2022-10-26T13:02:11.096Z,17.90
2022-10-26T13:07:23.361Z,17.70
2022-10-26T13:12:20.786Z,17.60
2022-10-26T13:17:31.684Z,17.80
2022-10-26T13:22:29.822Z,18.00
2022-10-26T13:27:35.976Z,18.10
2022-10-26T13:32:41.823Z,18.10
2022-10-26T13:37:46.384Z,18.30
2022-10-26T13:43:04.485Z,18.20
2022-10-26T13:48:07.122Z,18.20
2022-10-26T13:53:15.545Z,18.00
2022-10-26T13:58:43.214Z,17.90
2022-10-26T14:03:41.975Z,17.70
2022-10-26T14:08:42.349Z,17.40
2022-10-26T14:13:42.574Z,17.30
2022-10-26T14:18:40.929Z,17.30
2022-10-26T14:23:56.151Z,17.30
2022-10-26T14:28:58.084Z,17.20
2022-10-26T14:33:56.788Z,17.00
2022-10-26T14:39:07.313Z,16.90
2022-10-26T14:44:04.830Z,16.70
2022-10-26T14:49:03.436Z,16.60
2022-10-26T14:54:01.763Z,16.50
2022-10-26T14:58:59.646Z,16.50
2022-10-26T15:04:07.678Z,16.40
2022-10-26T15:09:06.965Z,16.40
2022-10-26T15:14:11.703Z,16.50
2022-10-26T15:19:15.584Z,16.50
2022-10-26T15:24:38.592Z,16.50
2022-10-26T15:29:39.739Z,16.40
2022-10-26T15:34:37.646Z,16.30
2022-10-26T15:39:34.890Z,16.00
2022-10-26T15:44:32.633Z,15.70
2022-10-26T15:49:29.848Z,15.40
2022-10-26T15:54:27.406Z,15.10
2022-10-26T15:59:24.721Z,14.90
2022-10-26T16:04:22.265Z,14.60
2022-10-26T16:09:19.575Z,14.40
2022-10-26T16:14:16.784Z,14.30
2022-10-26T16:19:31.228Z,14.00
2022-10-26T16:24:30.641Z,13.90
2022-10-26T16:29:28.351Z,13.70
2022-10-26T16:34:25.566Z,13.70
2022-10-26T16:39:23.364Z,13.70
2022-10-26T16:44:20.575Z,13.60
2022-10-26T16:49:18.465Z,13.70
2022-10-26T16:54:15.749Z,13.70
2022-10-26T16:59:13.052Z,13.60
2022-10-26T17:04:11.020Z,13.60
2022-10-26T17:09:08.314Z,13.40
2022-10-26T17:14:05.585Z,13.40
2022-10-26T17:19:02.815Z,13.30
2022-10-26T17:24:00.350Z,13.30
2022-10-26T17:28:58.559Z,13.30
2022-10-26T17:33:57.439Z,13.20
2022-10-26T17:38:55.888Z,13.30
2022-10-26T17:43:54.237Z,13.20
2022-10-26T17:49:00.748Z,13.20
2022-10-26T17:53:59.357Z,13.10
2022-10-26T17:59:09.585Z,13.10
2022-10-26T18:04:06.841Z,13.20
2022-10-26T18:09:04.574Z,13.10
2022-10-26T18:14:02.078Z,13.00
2022-10-26T18:19:02.018Z,12.90
2022-10-26T18:23:59.443Z,12.80
2022-10-26T18:28:57.889Z,12.70
2022-10-26T18:34:06.187Z,12.60
2022-10-26T18:39:03.857Z,12.60
2022-10-26T18:44:02.373Z,12.50
2022-10-26T18:49:01.101Z,12.50
2022-10-26T18:53:59.431Z,12.40
2022-10-26T18:58:59.097Z,12.20
2022-10-26T19:03:59.309Z,12.20
2022-10-26T19:08:56.872Z,12.10
2022-10-26T19:13:54.517Z,12.00
2022-10-26T19:23:58.348Z,11.80
2022-10-26T19:29:00.665Z,11.90
2022-10-26T19:33:58.409Z,11.80
2022-10-26T19:38:55.964Z,11.90
2022-10-26T19:49:02.098Z,11.90
2022-10-26T19:54:03.564Z,12.00
2022-10-26T19:59:01.766Z,12.00
2022-10-26T20:03:59.134Z,12.00
2022-10-26T20:08:56.358Z,12.00
2022-10-26T20:13:55.611Z,12.10
2022-10-26T20:18:53.145Z,12.00
2022-10-26T20:23:50.383Z,12.00
2022-10-26T20:28:53.749Z,11.90
2022-10-26T20:33:53.817Z,11.80
2022-10-26T20:38:51.303Z,11.80
2022-10-26T20:43:50.003Z,11.80
2022-10-26T20:48:50.594Z,11.80
2022-10-26T20:54:32.339Z,11.60
2022-10-26T21:04:34.899Z,11.50
2022-10-26T21:09:35.693Z,11.60
2022-10-26T21:14:40.708Z,11.50
2022-10-26T21:19:38.339Z,11.40
2022-10-26T21:29:33.700Z,11.30
2022-10-26T21:34:31.540Z,11.20
2022-10-26T21:39:28.829Z,11.10
2022-10-26T21:44:40.470Z,11.00
2022-10-26T21:49:39.418Z,11.10
2022-10-26T21:54:36.686Z,11.00
2022-10-26T21:59:33.941Z,10.90
2022-10-26T22:04:31.319Z,10.70
2022-10-26T22:09:28.878Z,10.80
2022-10-26T22:14:26.135Z,10.80
2022-10-26T22:19:23.432Z,10.90
2022-10-26T22:24:20.699Z,10.90
2022-10-26T22:29:17.960Z,10.90
2022-10-26T22:34:18.195Z,11.00
2022-10-26T22:39:15.253Z,11.00
2022-10-26T22:44:12.503Z,10.90
2022-10-26T22:49:11.677Z,10.90
2022-10-26T22:54:08.947Z,11.00
2022-10-26T22:59:06.688Z,10.90
2022-10-26T23:04:03.942Z,10.90
2022-10-26T23:09:01.232Z,11.00
2022-10-26T23:14:01.112Z,11.00
2022-10-26T23:18:59.378Z,11.00
2022-10-26T23:23:57.127Z,10.90
2022-10-26T23:28:54.428Z,10.90
2022-10-26T23:33:52.771Z,10.80
2022-10-26T23:38:50.363Z,10.70
2022-10-26T23:43:47.581Z,10.60
2022-10-26T23:48:44.763Z,10.50
2022-10-26T23:53:41.938Z,10.40
2022-10-26T23:58:39.268Z,10.30
